createdAt,value
2019-05-01T00:02:28.254Z,44.93
2019-05-01T00:05:09.619Z,42.67
2019-05-01T00:07:41.836Z,43.47
2019-05-01T00:10:15.353Z,45.30
2019-05-01T00:12:48.092Z,41.73
2019-05-01T00:15:21.488Z,42.00
2019-05-01T00:17:55.847Z,45.43
2019-05-01T00:20:26.174Z,43.03
2019-05-01T00:25:46.467Z,42.17
2019-05-01T00:28:22.528Z,41.90
2019-05-01T00:30:53.003Z,41.70
2019-05-01T00:33:27.896Z,44.83
2019-05-01T00:36:03.924Z,49.57
2019-05-01T00:38:36.747Z,45.37
2019-05-01T00:41:11.006Z,44.10
2019-05-01T00:43:44.227Z,47.40
2019-05-01T00:46:15.064Z,46.70
2019-05-01T00:48:48.258Z,40.43
2019-05-01T00:51:22.586Z,43.00
2019-05-01T00:53:53.016Z,40.23
2019-05-01T00:56:25.713Z,38.73
2019-05-01T00:59:03.849Z,39.23
2019-05-01T01:01:46.933Z,41.07
2019-05-01T01:04:19.911Z,43.07
2019-05-01T01:06:55.207Z,45.90
2019-05-01T01:09:29.911Z,39.30
2019-05-01T01:12:04.479Z,36.13
2019-05-01T01:14:45.138Z,37.23
2019-05-01T01:17:15.210Z,37.97
2019-05-01T01:19:48.372Z,39.80
2019-05-01T01:22:21.700Z,39.77
2019-05-01T01:24:52.710Z,36.90
2019-05-01T01:27:26.334Z,38.93
2019-05-01T01:30:08.297Z,36.97
2019-05-01T01:32:34.070Z,40.93
2019-05-01T01:35:07.279Z,42.37
2019-05-01T01:37:38.008Z,40.97
2019-05-01T01:40:13.787Z,40.43
2019-05-01T01:42:47.763Z,40.23
2019-05-01T01:45:21.096Z,39.73
2019-05-01T01:48:14.255Z,39.70
2019-05-01T01:50:47.225Z,40.93
2019-05-01T01:53:26.681Z,48.03
2019-05-01T01:55:54.773Z,44.30
2019-05-01T01:58:27.818Z,41.27
2019-05-01T02:01:09.221Z,45.07
2019-05-01T02:03:42.185Z,39.23
2019-05-01T02:06:15.523Z,39.03
2019-05-01T02:08:55.924Z,37.57
2019-05-01T02:11:20.531Z,39.57
2019-05-01T02:13:53.728Z,37.97
2019-05-01T02:16:32.504Z,40.23
2019-05-01T02:19:14.425Z,38.00
2019-05-01T02:21:45.816Z,39.27
2019-05-01T02:24:19.630Z,40.10
2019-05-01T02:26:52.615Z,43.00
2019-05-01T02:29:30.690Z,35.30
2019-05-01T02:32:09.149Z,41.13
2019-05-01T02:34:42.277Z,39.93
2019-05-01T02:37:21.063Z,39.30
2019-05-01T02:39:52.237Z,39.23
2019-05-01T02:42:25.706Z,42.57
2019-05-01T02:45:01.357Z,41.50
2019-05-01T02:47:42.246Z,42.80
2019-05-01T02:50:19.910Z,38.67
2019-05-01T02:52:55.005Z,39.37
2019-05-01T02:55:34.399Z,37.23
2019-05-01T02:58:03.134Z,35.87
2019-05-01T03:00:35.417Z,41.93
2019-05-01T03:03:06.682Z,38.93
2019-05-01T03:05:39.293Z,37.93
2019-05-01T03:08:16.455Z,40.90
2019-05-01T03:10:51.637Z,37.27
2019-05-01T03:13:25.589Z,39.53
2019-05-01T03:16:01.642Z,42.00
2019-05-01T03:18:39.863Z,39.40
2019-05-01T03:21:12.449Z,38.80
2019-05-01T03:23:46.210Z,40.73
2019-05-01T03:26:18.193Z,39.77
2019-05-01T03:28:57.718Z,42.77
2019-05-01T03:31:32.319Z,39.60
2019-05-01T03:34:10.520Z,41.40
2019-05-01T03:36:45.722Z,40.03
2019-05-01T03:39:17.831Z,37.37
2019-05-01T03:42:07.067Z,39.90
2019-05-01T03:44:40.481Z,38.63
2019-05-01T03:47:15.317Z,40.57
2019-05-01T03:49:49.102Z,41.83
2019-05-01T03:52:21.340Z,42.37
2019-05-01T03:54:57.662Z,39.53
2019-05-01T03:57:30.238Z,40.23
2019-05-01T04:00:04.571Z,45.37
2019-05-01T04:02:41.553Z,45.47
2019-05-01T04:05:12.748Z,45.70
2019-05-01T04:07:46.566Z,38.63
2019-05-01T04:10:16.838Z,41.07
2019-05-01T04:12:48.484Z,40.07
2019-05-01T04:15:22.523Z,42.33
2019-05-01T04:17:57.690Z,42.67
2019-05-01T04:20:33.351Z,39.60
2019-05-01T04:23:04.481Z,40.87
2019-05-01T04:25:36.697Z,41.43
2019-05-01T04:28:28.761Z,40.97
2019-05-01T04:31:17.458Z,46.07
2019-05-01T04:33:50.814Z,40.33
2019-05-01T04:36:28.287Z,39.93
2019-05-01T04:39:02.953Z,39.50
2019-05-01T04:41:39.895Z,43.60
2019-05-01T04:44:17.958Z,40.57
2019-05-01T04:46:49.185Z,37.93
2019-05-01T04:49:28.173Z,41.07
2019-05-01T04:52:00.644Z,44.40
2019-05-01T04:54:34.422Z,46.23
2019-05-01T04:57:05.278Z,45.67
2019-05-01T04:59:36.615Z,47.60
2019-05-01T05:02:16.090Z,47.73
2019-05-01T05:04:44.501Z,42.50
2019-05-01T05:07:23.838Z,43.73
2019-05-01T05:09:56.712Z,47.20
2019-05-01T05:12:48.053Z,45.67
2019-05-01T05:15:36.209Z,44.17
2019-05-01T05:18:12.924Z,45.97
2019-05-01T05:20:46.914Z,45.37
2019-05-01T05:23:19.801Z,46.27
2019-05-01T05:25:53.558Z,43.87
2019-05-01T05:28:26.499Z,43.70
2019-05-01T05:31:02.151Z,43.27
2019-05-01T05:33:35.478Z,40.60
2019-05-01T05:36:08.429Z,44.73
2019-05-01T05:38:50.227Z,45.43
2019-05-01T05:41:25.586Z,42.67
2019-05-01T05:44:06.149Z,42.57
2019-05-01T05:46:38.285Z,45.33
2019-05-01T05:49:12.106Z,44.73
2019-05-01T05:51:52.588Z,43.93
2019-05-01T05:54:33.539Z,47.17
2019-05-01T05:57:15.435Z,41.43
2019-05-01T05:59:56.516Z,40.37
2019-05-01T06:02:47.282Z,40.03
2019-05-01T06:05:42.171Z,43.63
2019-05-01T06:08:22.757Z,40.50
2019-05-01T06:11:10.591Z,41.17
2019-05-01T06:14:02.905Z,43.57
2019-05-01T06:16:41.989Z,44.03
2019-05-01T06:19:32.757Z,43.60
2019-05-01T06:22:10.182Z,46.17
2019-05-01T06:25:02.319Z,45.70
2019-05-01T06:27:36.429Z,49.17
2019-05-01T06:30:11.144Z,58.13
2019-05-01T06:32:50.973Z,60.53
2019-05-01T06:35:23.858Z,61.43
2019-05-01T06:38:10.803Z,64.23
2019-05-01T06:40:42.333Z,66.93
2019-05-01T06:43:20.210Z,66.37
2019-05-01T06:46:07.227Z,74.73
2019-05-01T06:48:37.901Z,79.87
2019-05-01T06:51:13.026Z,78.47
2019-05-01T06:53:44.592Z,81.63
2019-05-01T06:56:16.208Z,80.10
2019-05-01T06:58:51.021Z,76.90
2019-05-01T07:01:23.685Z,85.23
2019-05-01T07:04:03.659Z,75.40
2019-05-01T07:06:25.915Z,77.30
2019-05-01T07:08:58.720Z,75.20
2019-05-01T07:11:32.006Z,70.30
2019-05-01T07:14:05.242Z,71.10
2019-05-01T07:16:38.107Z,63.33
2019-05-01T07:19:19.498Z,71.07
2019-05-01T07:21:51.559Z,75.37
2019-05-01T07:24:32.909Z,69.30
2019-05-01T07:27:11.783Z,77.23
2019-05-01T07:29:46.693Z,79.90
2019-05-01T07:32:19.677Z,71.60
2019-05-01T07:34:56.884Z,76.47
2019-05-01T07:37:27.751Z,76.60
2019-05-01T07:40:03.526Z,71.13
2019-05-01T07:42:43.760Z,75.47
2019-05-01T07:45:20.649Z,76.70
2019-05-01T07:48:00.994Z,76.47
2019-05-01T07:50:33.615Z,76.83
2019-05-01T07:53:09.597Z,78.73
2019-05-01T07:55:41.128Z,76.37
2019-05-01T07:58:20.930Z,78.77
2019-05-01T08:01:04.976Z,78.07
2019-05-01T08:03:38.186Z,76.30
2019-05-01T08:06:06.468Z,76.80
2019-05-01T08:08:43.568Z,74.37
2019-05-01T08:11:15.499Z,72.13
2019-05-01T08:14:07.107Z,69.37
2019-05-01T08:16:25.961Z,77.60
2019-05-01T08:19:08.536Z,80.90
2019-05-01T08:21:43.977Z,77.10
2019-05-01T08:24:24.664Z,75.27
2019-05-01T08:26:52.568Z,82.93
2019-05-01T08:29:44.098Z,86.17
2019-05-01T08:32:33.768Z,87.70
2019-05-01T08:35:08.546Z,88.60
2019-05-01T08:37:46.843Z,86.37
2019-05-01T08:40:20.557Z,83.37
2019-05-01T08:42:59.063Z,88.57
2019-05-01T08:45:46.276Z,88.50
2019-05-01T08:48:35.743Z,86.13
2019-05-01T08:51:05.220Z,83.60
2019-05-01T08:53:38.553Z,78.53
2019-05-01T08:56:16.989Z,85.83
2019-05-01T08:58:51.694Z,89.37
2019-05-01T09:01:22.991Z,90.43
2019-05-01T09:03:54.173Z,95.90
2019-05-01T09:06:39.286Z,98.67
2019-05-01T09:09:14.013Z,87.90
2019-05-01T09:11:50.058Z,96.83
2019-05-01T09:14:24.455Z,93.97
2019-05-01T09:17:00.833Z,95.13
2019-05-01T09:19:38.555Z,89.97
2019-05-01T09:22:13.469Z,88.60
2019-05-01T09:24:45.432Z,91.27
2019-05-01T09:27:29.198Z,98.07
2019-05-01T09:30:04.559Z,105.13
2019-05-01T09:32:37.119Z,107.30
2019-05-01T09:35:16.133Z,96.47
2019-05-01T09:37:51.619Z,101.97
2019-05-01T09:40:30.427Z,103.90
2019-05-01T09:43:00.945Z,97.80
2019-05-01T09:45:33.168Z,95.17
2019-05-01T09:48:08.841Z,95.20
2019-05-01T09:51:00.974Z,106.37
2019-05-01T09:53:35.449Z,86.27
2019-05-01T09:56:09.943Z,89.97
2019-05-01T09:58:41.301Z,97.80
2019-05-01T10:01:16.015Z,90.33
2019-05-01T10:03:54.679Z,98.53
2019-05-01T10:06:22.522Z,88.10
2019-05-01T10:09:01.177Z,107.73
2019-05-01T10:11:36.007Z,98.27
2019-05-01T10:14:18.559Z,101.43
2019-05-01T10:16:48.765Z,101.13
2019-05-01T10:19:20.484Z,98.10
2019-05-01T10:21:50.605Z,96.10
2019-05-01T10:24:37.588Z,91.73
2019-05-01T10:27:08.385Z,96.47
2019-05-01T10:29:49.239Z,93.73
2019-05-01T10:32:25.891Z,100.90
2019-05-01T10:35:03.482Z,94.93
2019-05-01T10:37:35.700Z,96.80
2019-05-01T10:40:08.822Z,96.83
2019-05-01T10:42:41.756Z,107.03
2019-05-01T10:45:12.926Z,106.03
2019-05-01T10:47:45.564Z,102.17
2019-05-01T10:50:17.114Z,117.90
2019-05-01T10:52:52.445Z,112.50
2019-05-01T10:55:22.229Z,109.83
2019-05-01T10:57:55.320Z,103.13
2019-05-01T11:00:28.243Z,110.80
2019-05-01T11:03:03.907Z,102.43
2019-05-01T11:05:37.265Z,105.60
2019-05-01T11:08:18.162Z,115.60
2019-05-01T11:10:50.183Z,101.30
2019-05-01T11:13:20.948Z,110.00
2019-05-01T11:16:01.552Z,93.10
2019-05-01T11:18:39.291Z,95.90
2019-05-01T11:21:10.519Z,103.20
2019-05-01T11:23:41.533Z,92.73
2019-05-01T11:26:15.129Z,95.23
2019-05-01T11:28:44.421Z,104.23
2019-05-01T11:31:17.939Z,101.17
2019-05-01T11:33:54.298Z,94.70
2019-05-01T11:36:39.113Z,98.07
2019-05-01T11:39:35.951Z,88.53
2019-05-01T11:42:10.484Z,99.00
2019-05-01T11:44:43.003Z,95.27
2019-05-01T11:47:20.312Z,99.83
2019-05-01T11:50:11.504Z,94.53
2019-05-01T11:52:52.380Z,97.20
2019-05-01T11:55:21.859Z,100.40
2019-05-01T11:57:57.970Z,105.50
2019-05-01T12:00:27.126Z,105.07
2019-05-01T12:03:01.068Z,98.73
2019-05-01T12:05:41.200Z,102.97
2019-05-01T12:08:12.736Z,88.07
2019-05-01T12:10:54.916Z,104.70
2019-05-01T12:13:28.712Z,105.37
2019-05-01T12:16:03.844Z,98.07
2019-05-01T12:18:39.950Z,101.47
2019-05-01T12:21:20.148Z,100.03
2019-05-01T12:23:54.194Z,99.37
2019-05-01T12:26:29.368Z,91.67
2019-05-01T12:29:06.458Z,94.57
2019-05-01T12:31:39.599Z,103.70
2019-05-01T12:34:13.631Z,94.13
2019-05-01T12:36:47.733Z,89.97
2019-05-01T12:39:21.516Z,91.07
2019-05-01T12:42:01.926Z,92.23
2019-05-01T12:44:33.142Z,95.70
2019-05-01T12:47:18.395Z,94.07
2019-05-01T12:49:51.500Z,87.80
2019-05-01T12:52:42.856Z,83.73
2019-05-01T12:55:26.857Z,93.67
2019-05-01T12:58:04.473Z,94.97
2019-05-01T13:00:52.684Z,90.10
2019-05-01T13:03:24.525Z,84.70
2019-05-01T13:06:01.234Z,86.60
2019-05-01T13:08:31.844Z,86.53
2019-05-01T13:11:03.108Z,89.53
2019-05-01T13:13:42.872Z,95.13
2019-05-01T13:16:13.873Z,85.13
2019-05-01T13:18:49.983Z,89.27
2019-05-01T13:21:20.538Z,88.43
2019-05-01T13:23:50.256Z,88.87
2019-05-01T13:26:40.222Z,91.63
2019-05-01T13:29:19.643Z,96.80
2019-05-01T13:31:50.239Z,87.37
2019-05-01T13:34:20.579Z,94.73
2019-05-01T13:37:03.250Z,90.83
2019-05-01T13:39:30.398Z,94.27
2019-05-01T13:41:59.336Z,92.43
2019-05-01T13:44:32.395Z,94.70
2019-05-01T13:47:05.732Z,88.23
2019-05-01T13:49:40.099Z,89.03
2019-05-01T13:52:19.655Z,90.17
2019-05-01T13:54:51.851Z,84.70
2019-05-01T13:57:22.262Z,90.17
2019-05-01T13:59:53.561Z,84.57
2019-05-01T14:02:24.115Z,87.43
2019-05-01T14:04:54.101Z,91.20
2019-05-01T14:07:31.055Z,84.83
2019-05-01T14:10:04.894Z,81.40
2019-05-01T14:12:37.105Z,97.93
2019-05-01T14:15:06.820Z,87.93
2019-05-01T14:17:36.182Z,92.20
2019-05-01T14:20:24.436Z,86.50
2019-05-01T14:23:02.154Z,93.03
2019-05-01T14:25:55.741Z,90.23
2019-05-01T14:28:28.213Z,91.60
2019-05-01T14:31:10.915Z,98.13
2019-05-01T14:33:41.503Z,92.93
2019-05-01T14:36:14.018Z,88.70
2019-05-01T14:38:54.372Z,94.40
2019-05-01T14:41:37.008Z,101.83
2019-05-01T14:44:36.043Z,89.80
2019-05-01T14:46:55.895Z,99.03
2019-05-01T14:49:29.640Z,97.60
2019-05-01T14:52:07.179Z,101.73
2019-05-01T14:54:50.057Z,99.77
2019-05-01T14:57:23.418Z,97.93
2019-05-01T14:59:55.331Z,89.47
2019-05-01T15:02:26.447Z,98.70
2019-05-01T15:04:56.865Z,96.90
2019-05-01T15:07:28.247Z,95.50
2019-05-01T15:09:57.671Z,90.93
2019-05-01T15:12:27.994Z,95.80
2019-05-01T15:15:21.730Z,87.93
2019-05-01T15:18:02.390Z,91.40
2019-05-01T15:20:35.331Z,96.50
2019-05-01T15:23:09.823Z,96.57
2019-05-01T15:25:45.637Z,89.40
2019-05-01T15:28:25.988Z,95.43
2019-05-01T15:30:59.731Z,95.97
2019-05-01T15:33:31.492Z,86.87
2019-05-01T15:36:03.347Z,87.93
2019-05-01T15:38:44.264Z,101.17
2019-05-01T15:41:35.717Z,93.27
2019-05-01T15:44:24.269Z,97.07
2019-05-01T15:47:06.201Z,91.03
2019-05-01T15:49:48.773Z,85.93
2019-05-01T15:52:29.395Z,96.63
2019-05-01T15:55:25.373Z,95.20
2019-05-01T15:58:00.688Z,93.53
2019-05-01T16:00:31.789Z,93.17
2019-05-01T16:03:03.545Z,79.87
2019-05-01T16:05:38.892Z,83.33
2019-05-01T16:08:10.530Z,90.73
2019-05-01T16:10:49.880Z,87.67
2019-05-01T16:13:23.379Z,84.53
2019-05-01T16:15:54.599Z,88.67
2019-05-01T16:18:25.591Z,82.77
2019-05-01T16:20:56.669Z,84.57
2019-05-01T16:23:28.365Z,90.37
2019-05-01T16:26:03.319Z,88.23
2019-05-01T16:28:34.179Z,88.70
2019-05-01T16:31:07.326Z,85.50
2019-05-01T16:33:38.958Z,90.23
2019-05-01T16:36:12.443Z,82.23
2019-05-01T16:38:55.572Z,82.77
2019-05-01T16:41:28.865Z,87.13
2019-05-01T16:43:59.857Z,82.23
2019-05-01T16:46:31.736Z,98.03
2019-05-01T16:49:07.469Z,87.17
2019-05-01T16:51:33.865Z,91.87
2019-05-01T16:54:05.665Z,86.27
2019-05-01T16:56:38.651Z,81.97
2019-05-01T16:59:10.466Z,84.70
2019-05-01T17:01:52.507Z,78.80
2019-05-01T17:04:24.376Z,78.90
2019-05-01T17:07:14.081Z,77.93
2019-05-01T17:09:47.959Z,74.53
2019-05-01T17:12:25.177Z,73.17
2019-05-01T17:15:00.249Z,67.33
2019-05-01T17:17:30.102Z,65.07
2019-05-01T17:20:06.416Z,74.10
2019-05-01T17:22:46.299Z,68.33
2019-05-01T17:25:20.690Z,69.63
2019-05-01T17:27:52.946Z,64.17
2019-05-01T17:30:42.710Z,64.83
2019-05-01T17:33:20.484Z,60.93
2019-05-01T17:35:52.666Z,59.33
2019-05-01T17:38:33.595Z,66.57
2019-05-01T17:41:12.743Z,57.90
2019-05-01T17:43:49.370Z,60.83
2019-05-01T17:46:20.164Z,59.83
2019-05-01T17:48:53.069Z,59.23
2019-05-01T17:51:22.021Z,59.43
2019-05-01T17:53:55.857Z,59.40
2019-05-01T17:56:28.552Z,59.60
2019-05-01T17:59:02.390Z,61.20
2019-05-01T18:01:56.060Z,62.10
2019-05-01T18:04:38.096Z,59.50
2019-05-01T18:07:10.007Z,58.17
2019-05-01T18:09:44.350Z,63.17
2019-05-01T18:12:17.923Z,63.60
2019-05-01T18:14:50.002Z,59.07
2019-05-01T18:17:19.882Z,54.47
2019-05-01T18:19:52.044Z,57.20
2019-05-01T18:22:32.130Z,56.97
2019-05-01T18:25:21.046Z,57.97
2019-05-01T18:28:07.809Z,52.33
2019-05-01T18:30:44.950Z,58.07
2019-05-01T18:33:22.076Z,57.90
2019-05-01T18:35:55.207Z,60.30
2019-05-01T18:38:47.575Z,60.83
2019-05-01T18:41:28.480Z,61.13
2019-05-01T18:44:09.965Z,53.30
2019-05-01T18:49:33.680Z,60.87
2019-05-01T18:52:06.791Z,51.73
2019-05-01T18:54:37.004Z,58.73
2019-05-01T18:57:10.720Z,57.70
2019-05-01T18:59:42.100Z,60.80
2019-05-01T19:02:20.627Z,57.47
2019-05-01T19:04:56.016Z,64.20
2019-05-01T19:07:31.727Z,53.87
2019-05-01T19:10:08.357Z,59.17
2019-05-01T19:12:49.431Z,56.43
2019-05-01T19:15:19.337Z,58.43
2019-05-01T19:17:59.647Z,58.63
2019-05-01T19:20:30.233Z,53.57
2019-05-01T19:23:04.833Z,54.73
2019-05-01T19:25:49.254Z,58.43
2019-05-01T19:28:19.158Z,52.90
2019-05-01T19:30:51.102Z,56.90
2019-05-01T19:33:23.367Z,56.37
2019-05-01T19:35:57.343Z,58.33
2019-05-01T19:41:43.612Z,54.97
2019-05-01T19:44:25.202Z,52.27
2019-05-01T19:47:24.465Z,53.90
2019-05-01T19:49:40.716Z,52.70
2019-05-01T19:52:13.242Z,53.37
2019-05-01T19:54:53.108Z,60.20
2019-05-01T19:57:23.488Z,58.10
2019-05-01T19:59:56.603Z,57.73
2019-05-01T20:02:39.886Z,51.83
2019-05-01T20:08:06.682Z,55.87
2019-05-01T20:11:12.646Z,53.67
2019-05-01T20:13:53.015Z,56.47
2019-05-01T20:16:23.800Z,58.17
2019-05-01T20:19:00.616Z,61.30
2019-05-01T20:21:36.161Z,55.07
2019-05-01T20:24:12.637Z,56.00
2019-05-01T20:26:42.372Z,52.00
2019-05-01T20:32:04.554Z,53.93
2019-05-01T20:34:37.987Z,54.60
2019-05-01T20:48:22.998Z,55.57
2019-05-01T20:50:52.556Z,54.80
2019-05-01T20:53:28.334Z,55.93
2019-05-01T20:56:06.930Z,50.80
2019-05-01T21:01:31.953Z,55.03
2019-05-01T21:04:23.168Z,52.87
2019-05-01T21:07:31.669Z,57.97
2019-05-01T21:10:25.010Z,54.50
2019-05-01T21:13:04.211Z,55.40
2019-05-01T21:15:47.065Z,52.87
2019-05-01T21:18:25.408Z,53.27
2019-05-01T21:20:54.025Z,53.80
2019-05-01T21:58:00.914Z,52.80
2019-05-01T22:00:36.760Z,53.90
2019-05-01T22:03:09.570Z,54.60
2019-05-01T22:05:42.369Z,51.00
2019-05-01T22:08:12.152Z,59.73
2019-05-01T22:10:51.733Z,54.47
2019-05-01T22:13:20.379Z,52.83
2019-05-01T22:18:52.187Z,52.40
2019-05-01T22:21:36.024Z,54.13
2019-05-01T22:24:25.836Z,56.23
2019-05-01T22:27:06.540Z,53.13
2019-05-01T22:29:58.274Z,53.70
2019-05-01T22:32:36.885Z,53.50
2019-05-01T22:35:13.175Z,49.57
2019-05-01T22:37:42.533Z,49.53
2019-05-01T22:40:19.613Z,48.83
2019-05-01T22:42:51.284Z,57.47
2019-05-01T22:45:31.766Z,51.50
2019-05-01T22:48:03.398Z,51.83
2019-05-01T22:50:32.260Z,52.73
2019-05-01T22:53:01.383Z,50.97
2019-05-01T22:55:32.562Z,55.70
2019-05-01T22:58:10.620Z,49.50
2019-05-01T23:14:06.830Z,51.10
2019-05-01T23:16:40.533Z,53.03
2019-05-01T23:19:12.908Z,51.03
2019-05-01T23:21:50.913Z,55.23
2019-05-01T23:24:23.705Z,51.20
2019-05-01T23:26:54.574Z,54.57
2019-05-01T23:29:54.183Z,52.93
2019-05-01T23:32:24.334Z,52.27
2019-05-01T23:35:02.096Z,57.13
2019-05-01T23:37:37.272Z,50.20
2019-05-01T23:40:20.169Z,53.60
2019-05-01T23:42:53.490Z,52.43
2019-05-01T23:45:21.363Z,51.97
2019-05-01T23:47:52.084Z,52.47
2019-05-01T23:50:22.099Z,54.30
2019-05-01T23:52:55.305Z,55.70
2019-05-01T23:55:24.847Z,58.30
2019-05-01T23:57:54.854Z,57.03
